CDT,Max TemperatureF,Mean TemperatureF,Min TemperatureF,Max Dew PointF,MeanDew PointF,Min DewpointF,Max Humidity, Mean Humidity, Min Humidity, Max Sea Level PressureIn, Mean Sea Level PressureIn, Min Sea Level PressureIn, Max VisibilityMiles, Mean VisibilityMiles, Min VisibilityMiles, Max Wind SpeedMPH, Mean Wind SpeedMPH, Max Gust SpeedMPH,PrecipitationIn, CloudCover, Events, WindDirDegrees
2013-10-1,85,78,70,73,69,67,93,82,54,30.00,29.94,29.89,10,7,0,7,1,,0.00,5,,116
2013-10-2,86,78,70,70,68,64,92,75,48,30.05,29.99,29.92,10,9,3,10,1,,0.00,4,,139
2013-10-3,88,80,71,71,68,65,91,73,47,29.99,29.94,29.88,10,10,5,10,3,16,0.00,4,,155
2013-10-4,89,78,69,72,66,61,93,71,41,29.97,29.93,29.89,10,9,2,13,3,17,0.00,1,,160
2013-10-5,86,70,55,72,61,43,91,71,47,30.08,29.98,29.92,10,10,7,25,6,29,0.00,4,,285
2013-10-6,74,62,50,49,41,30,91,54,21,30.12,30.06,30.01,10,10,10,20,6,25,0.00,0,,309
2013-10-7,78,62,46,50,39,18,93,55,11,30.16,30.11,30.07,10,10,2,10,1,16,0.00,0,,343
2013-10-8,75,62,49,52,48,43,92,65,32,30.17,30.11,30.05,10,8,0,8,0,,0.00,0,,119
2013-10-9,79,63,47,55,51,46,94,69,34,30.14,30.08,30.04,10,10,5,0,0,,0.00,0,,-1
2013-10-10,80,65,50,60,54,48,94,68,37,30.13,30.04,29.96,10,9,4,10,1,,0.00,0,,129
2013-10-11,82,70,59,65,60,54,94,78,52,30.02,29.97,29.92,10,8,2,9,1,,0.00,1,,173
2013-10-12,86,70,68,68,66,61,93,84,69,30.11,30.06,29.98,10,9,2,14,3,24,0.01,3,,102
2013-10-13,75,72,68,67,65,63,94,83,68,30.25,30.18,30.10,10,8,0,12,3,17,0.00,6,,81
2013-10-14,72,68,65,69,65,63,91,85,79,30.19,30.09,30.01,10,8,4,9,2,,0.02,7,,118
2013-10-15,75,68,60,71,67,58,93,90,82,30.04,29.98,29.93,10,6,1,14,5,20,1.39,7,,179
2013-10-16,59,58,55,58,55,53,93,90,87,30.09,30.04,29.99,10,8,2,12,5,,0.40,8,,334
2013-10-17,69,59,49,53,48,42,94,72,36,30.14,30.07,30.02,10,10,1,8,2,,0.00,1,,301
2013-10-18,71,58,45,56,50,44,95,76,45,30.07,30.02,29.94,10,9,1,9,0,,0.00,4,,117
2013-10-19,63,54,44,56,42,32,93,68,31,30.20,30.12,30.02,10,10,2,16,8,28,0.00,3,,317
2013-10-20,70,53,37,47,42,37,96,69,32,30.12,30.04,29.95,10,8,1,12,2,16,0.00,0,,152
2013-10-21,70,60,50,62,53,46,91,79,61,30.09,30.02,29.96,10,10,0,14,2,18,0.36,6,,6
2013-10-22,71,59,47,53,47,37,92,68,29,30.17,30.10,30.03,10,10,7,9,2,,0.04,2,,275
2013-10-23,76,61,46,54,49,46,98,71,35,30.17,30.11,30.09,10,10,10,12,3,,0.00,0,,134
2013-10-24,76,63,50,53,51,47,91,65,40,30.31,30.19,30.08,10,10,7,9,5,,0.00,0,,20
2013-10-25,63,54,46,49,40,33,81,61,42,30.48,30.39,30.30,10,10,10,17,7,22,0.00,0,,83
2013-10-26,66,56,46,58,50,43,98,81,59,30.29,30.21,30.09,10,9,1,20,4,34,1.60,5,,77
2013-10-27,65,59,53,60,57,54,100,90,72,30.15,30.09,30.05,10,9,0,9,3,,0.13,6,,311
2013-10-28,75,62,50,64,59,51,100,90,66,30.18,30.11,30.06,10,7,0,9,2,,0.00,5,,119
2013-10-29,79,72,65,68,66,64,98,83,62,30.16,30.11,30.06,10,9,3,14,7,18,0.00,5,,146
2013-10-30,69,66,63,68,65,62,98,94,82,30.10,30.01,29.86,10,8,2,23,9,29,0.66,6,,143
2013-10-31,78,66,54,69,58,41,100,75,28,29.90,29.77,29.69,10,8,2,23,7,31,0.50,3,,231